Time;durP1;ratioP1;P1;durP2;ratioP2;P2;SDS_P1;SDS_P2;PMS_P1;PMS_P2;Temp;Humidity;BMP_temperature;BMP_pressure;BME280_temperature;BME280_humidity;BME280_pressure;Samples;Min_cycle;Max_cycle;Signal;HPM_P1;HPM_P2
2022/08/13 00:00:59;;;;;;;8.30;4.07;;;17.70;99.90;;;;;;4950521;28;20043;-44
2022/08/13 00:04:08;;;;;;;8.75;5.13;;;17.10;99.90;;;;;;4950398;29;20039;-44
2022/08/13 00:07:11;;;;;;;7.65;5.25;;;16.80;99.90;;;;;;4950827;29;20489;-44
2022/08/13 00:10:49;;;;;;;9.27;5.60;;;16.70;99.90;;;;;;4950694;29;20043;-46
2022/08/13 00:13:46;;;;;;;10.15;5.45;;;16.90;99.90;;;;;;4950081;29;20039;-45
2022/08/13 00:16:52;;;;;;;7.43;5.63;;;17.20;99.90;;;;;;4950739;29;20611;-46
2022/08/13 00:19:56;;;;;;;7.53;5.15;;;17.30;99.90;;;;;;4949920;29;20039;-45
2022/08/13 00:23:00;;;;;;;8.20;5.38;;;17.50;99.90;;;;;;4950446;28;20035;-47
2022/08/13 00:26:04;;;;;;;8.68;4.78;;;17.60;99.90;;;;;;4950369;29;20044;-45
2022/08/13 00:29:09;;;;;;;8.73;4.90;;;17.60;99.90;;;;;;4950428;29;20039;-45
2022/08/13 00:32:14;;;;;;;8.35;3.95;;;17.60;99.90;;;;;;4950598;29;20047;-45
2022/08/13 00:35:18;;;;;;;7.13;3.97;;;17.50;99.90;;;;;;4950029;29;20047;-45
2022/08/13 00:38:25;;;;;;;6.25;3.83;;;17.50;99.90;;;;;;4950750;29;20486;-44
2022/08/13 00:41:38;;;;;;;7.63;3.10;;;17.60;99.90;;;;;;4950562;29;20039;-48
2022/08/13 00:44:42;;;;;;;6.85;3.45;;;17.60;99.90;;;;;;4950130;29;20043;-46
2022/08/13 00:51:32;;;;;;;344.10;21.30;;;17.50;99.90;;;;;;4949796;29;20051;-44
2022/08/13 00:54:40;;;;;;;504.45;28.95;;;17.00;99.90;;;;;;4948803;29;20059;-44
2022/08/13 00:57:45;;;;;;;54.20;8.90;;;16.80;99.90;;;;;;4949746;28;20055;-44
2022/08/13 01:00:58;;;;;;;30.65;7.88;;;16.80;99.90;;;;;;4949486;29;20516;-42
2022/08/13 01:04:07;;;;;;;11.57;6.45;;;16.90;99.90;;;;;;4949329;29;20047;-46
2022/08/13 01:07:13;;;;;;;11.40;6.15;;;17.00;99.90;;;;;;4950254;29;20038;-48
2022/08/13 01:10:35;;;;;;;12.73;5.70;;;17.00;99.90;;;;;;4949732;29;20054;-45
2022/08/13 01:13:43;;;;;;;9.20;6.40;;;17.00;99.90;;;;;;4949515;29;20050;-42
2022/08/13 01:16:47;;;;;;;11.55;6.90;;;17.00;99.90;;;;;;4949777;29;20046;-44
2022/08/13 01:20:14;;;;;;;10.63;6.25;;;17.00;99.90;;;;;;4948991;29;20050;-44
2022/08/13 01:23:20;;;;;;;10.52;5.75;;;17.00;99.90;;;;;;4948554;29;20401;-47
2022/08/13 01:26:24;;;;;;;7.88;5.30;;;17.20;99.90;;;;;;4949590;29;20399;-45
2022/08/13 01:29:30;;;;;;;9.45;5.97;;;17.30;99.90;;;;;;4949554;29;20039;-45
2022/08/13 01:32:37;;;;;;;13.77;5.28;;;17.50;99.90;;;;;;4949408;29;20054;-45
2022/08/13 01:35:42;;;;;;;8.65;4.75;;;17.60;99.90;;;;;;4948993;29;20054;-45
2022/08/13 01:38:46;;;;;;;6.85;4.68;;;17.60;99.90;;;;;;4949406;28;20062;-45
2022/08/13 01:42:20;;;;;;;5.22;3.60;;;17.60;99.90;;;;;;4949209;29;20429;-45
2022/08/13 01:45:26;;;;;;;7.53;3.80;;;17.60;99.90;;;;;;4948661;29;20102;-44
2022/08/13 01:51:55;;;;;;;6.00;4.03;;;17.30;99.90;;;;;;4949239;29;20040;-46
2022/08/13 01:58:25;;;;;;;14.02;5.22;;;17.20;99.90;;;;;;4949550;29;20045;-44
2022/08/13 02:01:30;;;;;;;157.30;11.18;;;17.10;99.90;;;;;;4949353;29;20050;-49
2022/08/13 02:04:55;;;;;;;122.78;12.25;;;16.90;99.90;;;;;;4948755;29;20042;-45
2022/08/13 02:08:22;;;;;;;140.13;12.82;;;16.90;99.90;;;;;;4948947;29;20055;-44
2022/08/13 02:11:28;;;;;;;116.00;11.68;;;16.70;99.90;;;;;;4948969;29;20050;-45
2022/08/13 02:14:34;;;;;;;17.25;7.25;;;16.60;99.90;;;;;;4948510;29;20046;-42
2022/08/13 02:17:57;;;;;;;10.60;5.80;;;16.70;99.90;;;;;;4948824;29;20042;-44
2022/08/13 02:21:02;;;;;;;9.82;6.07;;;16.80;99.90;;;;;;4948018;29;20050;-45
2022/08/13 02:24:13;;;;;;;7.38;5.50;;;16.90;99.90;;;;;;4948918;29;20434;-44
2022/08/13 02:30:58;;;;;;;8.50;5.78;;;17.00;99.90;;;;;;4948435;29;20050;-46
2022/08/13 02:34:03;;;;;;;10.20;5.60;;;17.10;99.90;;;;;;4948469;29;20047;-46
2022/08/13 02:37:10;;;;;;;9.70;5.60;;;17.10;99.90;;;;;;4948435;29;20050;-46
2022/08/13 02:43:42;;;;;;;10.35;5.78;;;17.20;99.90;;;;;;4948476;29;20040;-45
2022/08/13 02:47:05;;;;;;;7.85;5.53;;;17.30;99.90;;;;;;4948475;28;20050;-49
2022/08/13 02:50:09;;;;;;;9.35;5.38;;;17.20;99.90;;;;;;4948408;29;20047;-45
2022/08/13 02:53:32;;;;;;;27.60;6.32;;;17.20;99.90;;;;;;4948456;29;20043;-47
2022/08/13 02:56:36;;;;;;;11.02;5.82;;;17.10;99.90;;;;;;4948743;29;20406;-45
2022/08/13 02:59:43;;;;;;;9.85;6.18;;;17.10;99.90;;;;;;4948546;29;20054;-45
2022/08/13 03:02:48;;;;;;;8.10;5.75;;;17.10;99.90;;;;;;4948745;29;20070;-46
2022/08/13 03:05:52;;;;;;;10.18;5.88;;;17.10;99.90;;;;;;4949137;29;20052;-45
2022/08/13 03:08:57;;;;;;;11.40;6.20;;;17.20;99.90;;;;;;4951734;29;20517;-44
2022/08/13 03:12:04;;;;;;;8.68;5.50;;;17.10;99.90;;;;;;4951869;29;20129;-45
2022/08/13 03:15:13;;;;;;;9.45;6.57;;;17.00;99.90;;;;;;4951128;29;20046;-46
2022/08/13 03:18:17;;;;;;;14.65;6.30;;;16.90;99.90;;;;;;4951671;29;20051;-45
2022/08/13 03:21:30;;;;;;;8.25;6.43;;;16.90;99.90;;;;;;4950511;28;20509;-43
2022/08/13 03:24:34;;;;;;;9.32;6.45;;;16.80;99.90;;;;;;4951132;29;20039;-42
2022/08/13 03:27:39;;;;;;;12.50;7.65;;;16.80;99.90;;;;;;4951120;29;20043;-43
2022/08/13 03:30:43;;;;;;;11.70;8.10;;;16.70;99.90;;;;;;4950578;29;20055;-44
2022/08/13 03:33:47;;;;;;;10.27;7.43;;;16.70;99.90;;;;;;4950803;29;20050;-42
2022/08/13 03:36:53;;;;;;;9.88;7.43;;;16.70;99.90;;;;;;4951137;29;20055;-42
2022/08/13 03:39:57;;;;;;;11.18;7.18;;;16.70;99.90;;;;;;4951078;29;20513;-42
2022/08/13 03:43:08;;;;;;;11.65;7.00;;;16.80;99.90;;;;;;4951292;28;20509;-43
2022/08/13 03:46:20;;;;;;;11.48;7.30;;;16.80;99.90;;;;;;4951360;28;20070;-46
2022/08/13 03:49:43;;;;;;;14.07;7.40;;;16.80;99.90;;;;;;4951145;28;20680;-44
2022/08/13 03:52:47;;;;;;;19.65;8.50;;;16.80;99.90;;;;;;4951192;29;20062;-42
2022/08/13 03:55:51;;;;;;;18.10;7.60;;;16.60;99.90;;;;;;4950850;29;20038;-45
2022/08/13 03:58:55;;;;;;;20.00;8.27;;;16.50;99.90;;;;;;4950891;28;20050;-42
2022/08/13 04:02:01;;;;;;;33.40;8.48;;;16.50;99.90;;;;;;4950695;28;20043;-43
2022/08/13 04:05:06;;;;;;;10.07;7.60;;;16.40;99.90;;;;;;4950400;29;20046;-44
2022/08/13 04:08:34;;;;;;;10.80;7.07;;;16.50;99.90;;;;;;4950504;29;20531;-43
2022/08/13 04:11:38;;;;;;;9.20;7.53;;;16.50;99.90;;;;;;4950933;29;20050;-47
2022/08/13 04:14:44;;;;;;;10.10;7.35;;;16.40;99.90;;;;;;4950562;29;20047;-45
2022/08/13 04:17:48;;;;;;;11.45;7.53;;;16.30;99.90;;;;;;4950224;28;20046;-45
2022/08/13 04:20:55;;;;;;;15.50;7.82;;;16.30;99.90;;;;;;4950055;28;20054;-45
2022/08/13 04:24:18;;;;;;;8.43;6.63;;;16.30;99.90;;;;;;4950238;29;20066;-44
2022/08/13 04:27:22;;;;;;;11.32;7.63;;;16.20;99.90;;;;;;4950282;29;20128;-42
2022/08/13 04:30:27;;;;;;;9.90;6.43;;;16.10;99.90;;;;;;4949566;28;20516;-43
2022/08/13 04:33:50;;;;;;;8.60;6.07;;;16.00;99.90;;;;;;4950052;29;20121;-46
2022/08/13 04:36:54;;;;;;;7.60;6.10;;;16.00;99.90;;;;;;4950285;29;20047;-42
2022/08/13 04:39:58;;;;;;;15.10;7.10;;;16.00;99.90;;;;;;4950612;29;20054;-41
2022/08/13 04:43:04;;;;;;;94.65;10.30;;;16.00;99.90;;;;;;5063773;22;20059;-53
2022/08/13 04:46:08;;;;;;;153.80;15.38;;;16.10;99.90;;;;;;5071557;28;20059;-52
2022/08/13 04:49:13;;;;;;;422.88;22.90;;;16.10;99.90;;;;;;5071049;28;20056;-53
2022/08/13 04:52:35;;;;;;;506.42;24.73;;;16.20;99.90;;;;;;5070911;28;20043;-50
2022/08/13 04:55:39;;;;;;;370.48;23.13;;;16.10;99.90;;;;;;5070906;28;20047;-50
2022/08/13 04:59:03;;;;;;;30.67;9.95;;;16.00;99.90;;;;;;5070676;28;20056;-51
2022/08/13 05:02:08;;;;;;;21.70;7.43;;;16.30;99.90;;;;;;5071189;28;20047;-52
2022/08/13 05:05:14;;;;;;;289.35;18.30;;;16.30;99.90;;;;;;5070660;28;20275;-53
2022/08/13 05:08:19;;;;;;;191.25;15.10;;;16.40;99.90;;;;;;5070394;28;20114;-53
2022/08/13 05:11:23;;;;;;;117.50;17.15;;;16.50;99.90;;;;;;5070545;28;20052;-50
2022/08/13 05:14:27;;;;;;;127.88;14.00;;;16.60;99.90;;;;;;5069991;28;20047;-52
2022/08/13 05:17:32;;;;;;;30.33;10.45;;;16.70;99.90;;;;;;5070107;28;20130;-53
2022/08/13 05:20:39;;;;;;;12.95;8.80;;;16.70;99.90;;;;;;5069850;28;20055;-50
2022/08/13 05:23:43;;;;;;;11.60;7.60;;;17.30;99.90;;;;;;5070154;28;20075;-51
2022/08/13 05:26:48;;;;;;;6.82;5.53;;;19.20;99.90;;;;;;5070339;28;20047;-51
2022/08/13 05:29:52;;;;;;;7.45;3.72;;;22.70;99.90;;;;;;5069446;28;20045;-50
2022/08/13 05:33:24;;;;;;;7.22;3.13;;;25.50;99.90;;;;;;5069704;28;20048;-50
2022/08/13 05:36:31;;;;;;;6.32;3.10;;;27.10;99.90;;;;;;5070197;28;20031;-53
2022/08/13 05:39:53;;;;;;;4.80;2.40;;;28.20;99.90;;;;;;5069487;28;20040;-50
2022/08/13 05:42:59;;;;;;;4.28;2.70;;;29.00;99.90;;;;;;5069679;28;20043;-52
2022/08/13 05:46:07;;;;;;;3.95;2.60;;;30.00;99.90;;;;;;5069906;28;20402;-51
2022/08/13 05:49:12;;;;;;;6.40;2.47;;;30.60;99.90;;;;;;5069823;28;20047;-51
2022/08/13 05:52:15;;;;;;;5.55;2.30;;;30.80;99.90;;;;;;5069839;28;20051;-51
2022/08/13 05:55:20;;;;;;;5.30;2.20;;;31.10;99.90;;;;;;5069710;28;20032;-49
2022/08/13 05:58:25;;;;;;;4.22;2.28;;;31.50;99.90;;;;;;5069270;28;20033;-54
2022/08/13 06:04:52;;;;;;;5.10;2.15;;;31.50;99.70;;;;;;5069404;28;20036;-53
2022/08/13 06:07:58;;;;;;;6.40;1.95;;;31.60;99.90;;;;;;5069485;28;20043;-53
2022/08/13 06:11:05;;;;;;;5.35;2.08;;;31.30;98.90;;;;;;5069726;28;20044;-53
2022/08/13 06:14:17;;;;;;;4.75;1.83;;;30.70;99.50;;;;;;5069545;28;20049;-54
2022/08/13 06:17:23;;;;;;;7.45;2.08;;;30.50;98.90;;;;;;5069729;28;20051;-53
2022/08/13 06:20:27;;;;;;;8.60;2.50;;;27.70;99.90;;;;;;5068913;28;20039;-54
2022/08/13 06:23:32;;;;;;;8.02;2.88;;;26.80;99.90;;;;;;5068998;28;20044;-51
2022/08/13 06:26:36;;;;;;;7.35;3.25;;;25.30;99.90;;;;;;5069691;28;20036;-53
2022/08/13 06:33:07;;;;;;;4.97;3.30;;;23.50;99.90;;;;;;5069393;28;20024;-52
2022/08/13 06:36:13;;;;;;;5.07;3.28;;;23.00;99.90;;;;;;5069217;28;20399;-49
2022/08/13 06:39:18;;;;;;;5.50;2.92;;;23.60;99.90;;;;;;5069450;28;20068;-49
2022/08/13 06:42:43;;;;;;;4.70;3.00;;;25.10;99.90;;;;;;5073501;28;20052;-53
2022/08/13 06:45:47;;;;;;;7.47;3.10;;;25.70;99.90;;;;;;5073467;28;20040;-53
2022/08/13 06:48:52;;;;;;;5.75;2.88;;;25.50;99.90;;;;;;5073398;28;20043;-50
2022/08/13 06:51:57;;;;;;;8.02;3.88;;;25.00;99.90;;;;;;5073797;28;20051;-49
2022/08/13 06:55:00;;;;;;;6.55;4.00;;;24.50;99.90;;;;;;5073080;28;20072;-49
2022/08/13 06:58:28;;;;;;;7.03;3.92;;;23.60;99.90;;;;;;5073749;28;20063;-49
2022/08/13 07:02:01;;;;;;;5.05;3.35;;;22.80;99.90;;;;;;5072968;28;20450;-51
2022/08/13 07:05:33;;;;;;;5.40;2.75;;;23.00;99.90;;;;;;5072644;28;20033;-53
2022/08/13 07:08:38;;;;;;;4.57;2.05;;;25.70;99.90;;;;;;5072954;28;20040;-53
2022/08/13 07:11:45;;;;;;;6.93;2.50;;;27.70;99.90;;;;;;5072809;28;20043;-54
2022/08/13 07:14:49;;;;;;;4.65;2.28;;;28.70;99.90;;;;;;5072626;28;20043;-54
2022/08/13 07:18:11;;;;;;;6.60;2.03;;;29.50;99.90;;;;;;5072774;28;20412;-51
2022/08/13 07:21:20;;;;;;;7.22;2.55;;;30.10;99.90;;;;;;5071704;28;20041;-53
2022/08/13 07:24:26;;;;;;;9.02;2.67;;;27.50;99.90;;;;;;5072512;28;20029;-54
2022/08/13 07:27:30;;;;;;;6.50;3.00;;;27.20;99.90;;;;;;5072881;28;20028;-51
2022/08/13 07:30:53;;;;;;;11.13;3.05;;;26.40;99.90;;;;;;5072470;28;20040;-53
2022/08/13 07:33:59;;;;;;;6.35;2.53;;;26.90;99.90;;;;;;5072627;28;20044;-51
2022/08/13 07:37:03;;;;;;;9.82;2.42;;;27.70;99.90;;;;;;5072493;28;20044;-53
2022/08/13 07:40:08;;;;;;;3.88;2.40;;;28.60;99.90;;;;;;5071996;28;20407;-54
2022/08/13 07:43:12;;;;;;;7.15;2.25;;;28.30;99.90;;;;;;5072314;28;20043;-53
2022/08/13 07:46:17;;;;;;;2.80;1.60;;;28.10;99.90;;;;;;5072493;28;20564;-53
2022/08/13 07:49:23;;;;;;;5.60;2.03;;;28.20;99.90;;;;;;5072407;28;20325;-53
2022/08/13 07:52:55;;;;;;;4.10;2.33;;;28.50;99.90;;;;;;5071791;28;20041;-53
2022/08/13 07:56:19;;;;;;;4.32;2.00;;;29.90;99.70;;;;;;5072008;28;20503;-49
2022/08/13 07:59:23;;;;;;;2.13;1.60;;;28.90;98.40;;;;;;5071893;28;20037;-54
2022/08/13 08:02:32;;;;;;;4.07;1.50;;;31.00;97.30;;;;;;5071999;28;20514;-54
2022/08/13 08:05:38;;;;;;;2.45;1.25;;;32.50;96.60;;;;;;5071546;28;20045;-53
2022/08/13 08:09:01;;;;;;;3.15;1.58;;;33.50;93.10;;;;;;5071904;28;20061;-50
2022/08/13 08:12:33;;;;;;;5.65;1.45;;;33.60;91.00;;;;;;5071348;28;20041;-52
2022/08/13 08:15:56;;;;;;;3.80;1.50;;;33.60;92.00;;;;;;5071763;28;20037;-54
2022/08/13 08:19:20;;;;;;;3.55;1.50;;;31.60;92.70;;;;;;5071789;28;20044;-52
2022/08/13 08:22:24;;;;;;;5.22;1.88;;;29.30;95.10;;;;;;5070370;28;20036;-50
2022/08/13 08:25:28;;;;;;;6.22;1.67;;;29.60;95.20;;;;;;5071534;28;20047;-51
2022/08/13 08:28:32;;;;;;;3.33;1.60;;;30.60;95.40;;;;;;5071535;28;20402;-54
2022/08/13 08:35:02;;;;;;;5.00;1.75;;;33.60;92.30;;;;;;5071274;28;20045;-51
2022/08/13 08:45:31;;;;;;;3.75;1.63;;;35.10;90.30;;;;;;5071028;28;20916;-51
2022/08/13 08:48:36;;;;;;;7.15;1.50;;;35.70;87.40;;;;;;5071121;28;20063;-50
2022/08/13 08:51:41;;;;;;;3.47;1.50;;;35.10;86.00;;;;;;5070344;28;20056;-52
2022/08/13 08:54:49;;;;;;;4.43;1.73;;;34.60;85.50;;;;;;5070913;28;20037;-53
2022/08/13 08:57:53;;;;;;;1.85;1.27;;;33.60;84.20;;;;;;5069824;28;20052;-54
2022/08/13 09:00:59;;;;;;;3.97;1.50;;;32.50;90.20;;;;;;5070354;28;20037;-53
2022/08/13 09:04:05;;;;;;;3.78;1.70;;;33.60;85.50;;;;;;5069661;28;20044;-53
2022/08/13 09:07:10;;;;;;;4.00;1.73;;;33.20;85.80;;;;;;5070632;28;20040;-53
2022/08/13 09:10:16;;;;;;;2.08;1.42;;;31.00;87.80;;;;;;5070416;28;20106;-51
2022/08/13 09:13:40;;;;;;;2.55;1.38;;;33.40;90.30;;;;;;5070350;28;20107;-52
2022/08/13 09:16:46;;;;;;;3.50;1.55;;;36.20;82.60;;;;;;5070417;28;20048;-53
2022/08/13 09:20:33;;;;;;;2.55;1.17;;;37.90;80.50;;;;;;5070418;28;20043;-54
2022/08/13 09:23:44;;;;;;;1.67;1.30;;;39.40;79.00;;;;;;5070355;28;20032;-51
2022/08/13 09:26:48;;;;;;;4.05;1.50;;;40.70;73.20;;;;;;5070120;28;20517;-53
2022/08/13 09:29:52;;;;;;;3.25;1.38;;;41.20;74.40;;;;;;5070199;28;20047;-54
2022/08/13 09:36:24;;;;;;;1.85;1.20;;;42.10;71.20;;;;;;5070293;28;20037;-52
2022/08/13 09:39:36;;;;;;;6.63;1.35;;;42.00;70.30;;;;;;5070070;28;20040;-50
2022/08/13 09:42:57;;;;;;;3.28;1.48;;;42.20;70.10;;;;;;5069621;28;20044;-54
2022/08/13 09:46:04;;;;;;;4.25;1.42;;;42.20;68.20;;;;;;5070411;28;20036;-54
2022/08/13 09:49:08;;;;;;;2.97;1.40;;;40.50;69.60;;;;;;5070339;28;20048;-50
2022/08/13 09:52:12;;;;;;;4.97;1.58;;;42.10;69.70;;;;;;5069916;28;20043;-51
2022/08/13 09:55:17;;;;;;;2.30;1.33;;;43.10;68.50;;;;;;5070249;28;20411;-52
2022/08/13 09:58:23;;;;;;;2.35;1.13;;;44.40;68.40;;;;;;5070115;28;20048;-53
2022/08/13 10:01:27;;;;;;;5.78;1.40;;;45.40;66.20;;;;;;5070009;28;20053;-54
2022/08/13 10:04:32;;;;;;;3.58;1.25;;;45.30;66.70;;;;;;5069653;28;20044;-53
2022/08/13 10:07:55;;;;;;;3.60;1.48;;;45.50;64.70;;;;;;5070240;28;20039;-51
2022/08/13 10:10:59;;;;;;;6.90;1.58;;;43.00;64.60;;;;;;5068944;28;20037;-50
2022/08/13 10:14:03;;;;;;;4.93;1.27;;;41.60;67.60;;;;;;5069529;28;20067;-50
2022/08/13 10:17:08;;;;;;;5.00;1.63;;;43.40;65.80;;;;;;5069578;28;20055;-50
2022/08/13 10:20:15;;;;;;;6.05;1.40;;;40.20;69.20;;;;;;5069191;28;20053;-54
2022/08/13 10:23:37;;;;;;;3.20;1.33;;;40.80;67.60;;;;;;5068990;28;20064;-54
2022/08/13 10:27:00;;;;;;;3.03;1.58;;;42.30;66.60;;;;;;5069501;28;20510;-54
2022/08/13 10:30:05;;;;;;;3.25;1.48;;;41.10;65.50;;;;;;5069251;28;20043;-50
2022/08/13 10:33:27;;;;;;;4.65;1.60;;;41.30;67.10;;;;;;5068870;28;20045;-54
2022/08/13 10:36:50;;;;;;;2.95;1.50;;;43.20;65.50;;;;;;5069663;28;20044;-54
2022/08/13 10:39:58;;;;;;;4.72;1.60;;;39.30;65.20;;;;;;5069202;28;20044;-54
2022/08/13 10:43:05;;;;;;;4.00;1.50;;;39.20;67.70;;;;;;5092951;22;20028;-52
2022/08/13 10:46:16;;;;;;;2.35;1.58;;;39.80;68.00;;;;;;5069086;28;20522;-53
2022/08/13 10:49:20;;;;;;;2.97;1.48;;;36.80;68.30;;;;;;5069170;28;20033;-52
2022/08/13 10:52:26;;;;;;;3.25;1.50;;;36.90;71.70;;;;;;5068713;28;20036;-51
2022/08/13 10:55:31;;;;;;;4.43;1.40;;;36.90;69.70;;;;;;5048794;28;20041;-51
2022/08/13 10:58:36;;;;;;;2.85;1.63;;;37.20;68.70;;;;;;5048930;28;20044;-51
2022/08/13 11:01:40;;;;;;;7.57;1.55;;;37.70;68.50;;;;;;5049056;28;20123;-49
2022/08/13 11:04:45;;;;;;;6.15;1.80;;;36.60;69.60;;;;;;5048388;28;20411;-50
2022/08/13 11:11:12;;;;;;;3.28;1.90;;;35.00;71.40;;;;;;5048667;28;20049;-49
2022/08/13 11:14:18;;;;;;;3.28;1.40;;;34.10;71.40;;;;;;5048689;28;20037;-46
2022/08/13 11:17:49;;;;;;;3.92;1.80;;;33.90;73.10;;;;;;5048960;28;20033;-44
2022/08/13 11:21:07;;;;;;;3.35;2.00;;;34.30;72.10;;;;;;5048307;28;20109;-45
2022/08/13 11:24:13;;;;;;;3.72;1.67;;;32.80;74.10;;;;;;5048610;28;20048;-51
2022/08/13 11:27:17;;;;;;;9.82;1.92;;;33.90;73.70;;;;;;5050615;28;20041;-50
2022/08/13 11:30:40;;;;;;;3.13;1.98;;;32.40;73.80;;;;;;5052610;28;20522;-45
2022/08/13 11:33:44;;;;;;;2.65;1.73;;;34.10;70.50;;;;;;5052099;28;20037;-51
2022/08/13 11:36:47;;;;;;;6.30;1.70;;;34.50;70.00;;;;;;5052674;28;20108;-51
2022/08/13 11:39:51;;;;;;;3.63;1.63;;;34.80;68.80;;;;;;5052357;28;20040;-50
2022/08/13 11:42:55;;;;;;;6.80;1.65;;;34.10;69.10;;;;;;5052045;28;20037;-51
2022/08/13 11:45:59;;;;;;;4.97;1.88;;;34.50;70.10;;;;;;5051962;28;20033;-48
2022/08/13 11:49:06;;;;;;;2.95;1.83;;;36.90;66.20;;;;;;5052006;28;20423;-50
2022/08/13 11:52:10;;;;;;;4.53;1.58;;;35.50;66.50;;;;;;5052172;28;20510;-51
2022/08/13 11:55:14;;;;;;;2.83;1.80;;;35.50;66.30;;;;;;5052029;28;20044;-49
2022/08/13 11:58:18;;;;;;;2.88;1.60;;;33.20;67.20;;;;;;5051756;28;20037;-48
2022/08/13 12:01:22;;;;;;;2.03;1.75;;;32.80;69.70;;;;;;5050981;28;20411;-48
2022/08/13 12:04:27;;;;;;;4.43;1.83;;;31.00;70.30;;;;;;5051096;28;20325;-50
2022/08/13 12:07:31;;;;;;;3.83;1.77;;;31.40;72.00;;;;;;5052278;28;20056;-47
2022/08/13 12:10:35;;;;;;;3.78;1.60;;;31.40;73.10;;;;;;5050722;28;20413;-49
2022/08/13 12:13:39;;;;;;;4.90;1.73;;;32.10;72.30;;;;;;5050362;28;20037;-47
2022/08/13 12:16:45;;;;;;;2.00;1.45;;;34.30;68.10;;;;;;5050699;28;20056;-49
2022/08/13 12:19:49;;;;;;;2.53;1.60;;;35.60;64.90;;;;;;5051246;28;20055;-49
2022/08/13 12:22:55;;;;;;;4.80;1.80;;;34.50;65.70;;;;;;5051153;28;20048;-51
2022/08/13 12:25:59;;;;;;;7.65;1.70;;;34.20;66.60;;;;;;5051898;28;20060;-51
2022/08/13 12:29:03;;;;;;;4.22;1.83;;;34.00;69.10;;;;;;5051988;28;20411;-51
2022/08/13 12:32:07;;;;;;;3.20;1.50;;;36.60;67.20;;;;;;5051507;28;20047;-51
2022/08/13 12:35:31;;;;;;;2.60;1.92;;;38.50;64.00;;;;;;5051035;28;20036;-50
2022/08/13 12:38:34;;;;;;;2.60;1.60;;;37.50;63.00;;;;;;5051639;28;20036;-50
2022/08/13 12:41:38;;;;;;;3.55;1.83;;;35.50;63.50;;;;;;5051625;28;20052;-50
2022/08/13 12:44:42;;;;;;;1.95;1.48;;;34.30;66.90;;;;;;5050522;28;20041;-50
2022/08/13 12:47:46;;;;;;;2.55;1.63;;;34.00;65.30;;;;;;5050972;28;20503;-48
2022/08/13 12:51:08;;;;;;;2.17;1.30;;;34.00;66.10;;;;;;5050973;28;20421;-51
2022/08/13 12:54:12;;;;;;;5.57;1.65;;;34.00;64.80;;;;;;5050143;28;20052;-51
2022/08/13 12:57:17;;;;;;;2.53;1.15;;;35.00;63.30;;;;;;5051102;28;20502;-51
2022/08/13 13:00:22;;;;;;;3.60;1.30;;;36.00;61.00;;;;;;5050876;28;20045;-50
2022/08/13 13:03:44;;;;;;;2.92;1.10;;;35.60;61.80;;;;;;5050372;28;20507;-47
2022/08/13 13:06:50;;;;;;;2.10;1.50;;;36.30;62.50;;;;;;5050512;28;20048;-51
2022/08/13 13:09:54;;;;;;;21.40;2.40;;;37.10;61.20;;;;;;5050348;28;20037;-51
2022/08/13 13:16:21;;;;;;;3.08;1.20;;;37.20;61.00;;;;;;5050600;28;20403;-51
2022/08/13 13:19:25;;;;;;;1.80;1.27;;;37.80;61.40;;;;;;5050425;28;20044;-50
2022/08/13 13:22:28;;;;;;;3.78;1.50;;;38.40;59.50;;;;;;5050151;28;20052;-45
2022/08/13 13:25:32;;;;;;;4.00;0.95;;;38.10;60.10;;;;;;5049652;28;20048;-49
2022/08/13 13:28:36;;;;;;;2.03;1.30;;;38.30;60.30;;;;;;5050493;28;20048;-49
2022/08/13 13:32:03;;;;;;;4.72;1.33;;;38.20;60.00;;;;;;5049937;28;20508;-47
2022/08/13 13:35:08;;;;;;;5.00;1.20;;;38.30;59.50;;;;;;5049696;28;20044;-51
2022/08/13 13:38:32;;;;;;;1.52;1.20;;;38.20;59.40;;;;;;5050237;28;20033;-51
2022/08/13 13:41:37;;;;;;;3.65;1.23;;;38.30;59.90;;;;;;5049842;28;20488;-46
2022/08/13 13:44:41;;;;;;;3.13;1.20;;;38.10;58.50;;;;;;5049345;28;20059;-48
2022/08/13 13:48:26;;;;;;;2.33;1.20;;;37.60;59.40;;;;;;5050520;28;20052;-51
2022/08/13 13:51:30;;;;;;;3.83;1.20;;;37.10;59.70;;;;;;5049965;28;20048;-51
2022/08/13 13:54:34;;;;;;;2.28;1.10;;;36.90;60.10;;;;;;5050027;28;20052;-49
2022/08/13 13:57:40;;;;;;;2.25;1.45;;;36.30;60.10;;;;;;5050232;28;20049;-46
2022/08/13 14:01:22;;;;;;;2.30;1.27;;;35.90;60.30;;;;;;5045116;28;20048;-49
2022/08/13 14:04:26;;;;;;;1.25;1.10;;;35.70;61.30;;;;;;5047801;28;20042;-47
2022/08/13 14:07:30;;;;;;;2.08;1.10;;;35.50;61.30;;;;;;5040402;28;20033;-50
2022/08/13 14:10:53;;;;;;;2.95;1.30;;;35.40;61.30;;;;;;5044719;28;20040;-46
2022/08/13 14:13:57;;;;;;;2.13;1.40;;;35.50;60.10;;;;;;5046636;28;20045;-44
2022/08/13 14:17:03;;;;;;;2.83;1.10;;;35.60;60.50;;;;;;5047188;28;20439;-50
2022/08/13 14:20:09;;;;;;;2.38;1.27;;;36.00;60.20;;;;;;5049016;28;20048;-50
2022/08/13 14:23:14;;;;;;;1.85;1.38;;;36.00;60.20;;;;;;5045624;28;20048;-51
2022/08/13 14:26:21;;;;;;;3.88;2.03;;;36.00;60.40;;;;;;5050479;28;20036;-50
2022/08/13 14:29:26;;;;;;;2.28;1.02;;;35.80;60.00;;;;;;5046844;28;20439;-50
2022/08/13 14:32:32;;;;;;;1.05;0.95;;;35.50;60.60;;;;;;5042799;28;20079;-51
2022/08/13 14:35:36;;;;;;;3.20;1.13;;;35.50;60.30;;;;;;5049038;28;20495;-50
2022/08/13 14:38:41;;;;;;;4.35;1.33;;;35.40;60.40;;;;;;5049466;28;20033;-50
2022/08/13 14:41:45;;;;;;;2.38;1.40;;;35.10;59.40;;;;;;5049120;28;20045;-48
2022/08/13 14:45:39;;;;;;;1.83;1.10;;;34.80;59.80;;;;;;5048882;28;20045;-50
2022/08/13 14:48:33;;;;;;;4.28;1.20;;;34.60;60.70;;;;;;5049449;28;20514;-47
2022/08/13 14:51:39;;;;;;;4.53;1.20;;;34.70;59.90;;;;;;5048797;28;20052;-48
2022/08/13 14:54:44;;;;;;;2.17;1.10;;;34.30;60.70;;;;;;5048886;28;20032;-51
2022/08/13 14:57:49;;;;;;;3.72;1.25;;;33.80;60.70;;;;;;5049085;28;20044;-48
2022/08/13 15:00:55;;;;;;;6.70;1.42;;;33.60;61.40;;;;;;5049093;28;20041;-46
2022/08/13 15:04:04;;;;;;;2.60;0.90;;;33.60;60.40;;;;;;5052861;28;20040;-51
2022/08/13 15:07:08;;;;;;;1.85;1.40;;;33.60;60.80;;;;;;5053291;28;20037;-50
2022/08/13 15:10:23;;;;;;;2.72;1.50;;;33.40;61.30;;;;;;5053192;28;20041;-48
2022/08/13 15:13:27;;;;;;;2.20;1.50;;;33.20;61.30;;;;;;5052507;28;20052;-47
2022/08/13 15:16:31;;;;;;;2.25;1.10;;;33.00;60.50;;;;;;5052336;28;20052;-51
2022/08/13 15:22:59;;;;;;;3.25;1.50;;;32.60;61.80;;;;;;5052758;28;20032;-51
2022/08/13 15:26:06;;;;;;;1.83;1.30;;;32.50;62.20;;;;;;5052656;28;20507;-49
2022/08/13 15:29:11;;;;;;;2.60;1.58;;;32.30;62.70;;;;;;5052456;28;20037;-48
2022/08/13 15:32:15;;;;;;;1.88;1.30;;;32.10;62.40;;;;;;5052529;28;20450;-48
2022/08/13 15:35:25;;;;;;;1.92;1.40;;;31.90;62.60;;;;;;5051990;28;20116;-44
2022/08/13 15:38:28;;;;;;;1.95;1.65;;;31.70;62.30;;;;;;5052593;28;20033;-44
2022/08/13 15:42:04;;;;;;;4.13;1.20;;;31.60;62.40;;;;;;5052703;28;20048;-50
2022/08/13 15:45:08;;;;;;;2.03;1.40;;;31.50;62.70;;;;;;5052354;28;20052;-46
2022/08/13 15:48:13;;;;;;;6.50;2.58;;;31.60;62.60;;;;;;5052668;28;20045;-44
2022/08/13 15:51:17;;;;;;;1.60;1.17;;;31.50;62.50;;;;;;5052246;28;20044;-45
2022/08/13 15:54:40;;;;;;;3.85;1.30;;;31.30;63.10;;;;;;5052022;28;20044;-44
2022/08/13 15:57:44;;;;;;;3.38;1.50;;;31.20;63.00;;;;;;5051921;28;20044;-50
2022/08/13 16:00:50;;;;;;;3.42;1.40;;;30.90;63.90;;;;;;5051995;28;20042;-50
2022/08/13 16:04:14;;;;;;;2.25;1.63;;;30.70;63.60;;;;;;5051709;28;20057;-44
2022/08/13 16:07:19;;;;;;;3.80;1.30;;;30.70;63.30;;;;;;5051881;28;20048;-50
2022/08/13 16:10:27;;;;;;;2.05;1.40;;;30.60;63.40;;;;;;5052009;28;20044;-49
2022/08/13 16:13:31;;;;;;;1.30;1.00;;;30.60;63.50;;;;;;5050924;28;20041;-51
2022/08/13 16:16:35;;;;;;;1.20;1.10;;;30.40;62.50;;;;;;5050930;28;20041;-48
2022/08/13 16:19:42;;;;;;;2.38;1.20;;;30.20;63.10;;;;;;5051649;28;20403;-48
2022/08/13 16:22:47;;;;;;;1.30;1.05;;;30.20;63.60;;;;;;5051453;28;20372;-50
2022/08/13 16:25:53;;;;;;;2.83;1.20;;;30.20;63.40;;;;;;5051599;28;20036;-50
2022/08/13 16:29:16;;;;;;;2.75;1.55;;;30.10;63.70;;;;;;5051638;28;20056;-51
2022/08/13 16:32:21;;;;;;;2.25;1.40;;;30.00;63.70;;;;;;5051517;28;20054;-46
2022/08/13 16:35:27;;;;;;;1.80;1.15;;;29.70;64.90;;;;;;5051064;28;20044;-47
2022/08/13 16:38:31;;;;;;;3.28;1.23;;;29.60;65.00;;;;;;5051399;28;20504;-51
2022/08/13 16:41:35;;;;;;;2.78;1.33;;;29.40;64.60;;;;;;5051106;28;20033;-49
2022/08/13 16:44:41;;;;;;;2.38;1.20;;;29.20;64.50;;;;;;5081004;22;20537;-49
2022/08/13 16:48:04;;;;;;;2.35;1.50;;;29.10;64.90;;;;;;5071014;28;20517;-52
2022/08/13 16:51:27;;;;;;;2.75;1.60;;;29.00;65.20;;;;;;5070558;28;20043;-52
2022/08/13 16:54:51;;;;;;;2.00;1.20;;;28.90;65.70;;;;;;5070974;28;20047;-51
2022/08/13 16:57:59;;;;;;;5.28;1.50;;;28.80;65.70;;;;;;5070877;28;20319;-52
2022/08/13 17:01:08;;;;;;;1.40;1.20;;;28.70;65.20;;;;;;5070833;28;20047;-51
2022/08/13 17:14:30;;;;;;;2.45;1.60;;;28.10;67.00;;;;;;5070807;28;20040;-48
2022/08/13 17:21:15;;;;;;;4.93;1.70;;;27.90;68.30;;;;;;5070662;28;20048;-52